Terminal Aerodrome Forecast
Issued by NWS Cleveland, OH

Home | Current Version | Previous Version | Text Only | Print | Product List | Glossary Off
Versions: 1 2 3 4 5 6 7 8 9 10 11 12 13 14 15 16 17 18 19 20 21 22 23 24 25 26 27 28 29 30

000
FTUS41 KCLE 042337
TAFCLE
TAF
KCLE 042337Z 0500/0606 22006KT 6SM -SHRA OVC040
      TEMPO 0500/0503 5SM -SHRA OVC025
     FM050300 14004KT 6SM -SHRA SCT012 OVC025
     FM050700 01006KT 5SM BR SCT008 OVC012
      TEMPO 0511/0514 OVC008
     FM051600 02012KT P6SM SCT012 OVC025
     FM052000 02014G22KT P6SM OVC035=

USA.gov is the U.S. government's official web portal to all federal, state and local government web resources and services.